Time;durP1;ratioP1;P1;durP2;ratioP2;P2;SDS_P1;SDS_P2;PMS_P1;PMS_P2;Temp;Humidity;BMP_temperature;BMP_pressure;BME280_temperature;BME280_humidity;BME280_pressure;Samples;Min_cycle;Max_cycle;Signal;HPM_P1;HPM_P2
2021/06/20 00:04:44;;;;;;;4.35;3.95;;;;;;;23.46;54.25;99577.38;10344791;28;20192;-76
2021/06/20 00:09:51;;;;;;;4.50;4.10;;;;;;;22.43;61.45;99567.75;10344187;28;20212;-76
2021/06/20 00:14:54;;;;;;;5.97;3.78;;;;;;;21.95;65.81;99566.38;10343817;28;20180;-74
2021/06/20 00:19:59;;;;;;;4.32;3.92;;;;;;;21.34;68.37;99575.88;10344044;28;20223;-75
2021/06/20 00:25:02;;;;;;;4.72;4.10;;;;;;;20.41;70.83;99580.53;10343124;28;20196;-74
2021/06/20 00:30:08;;;;;;;4.97;4.47;;;;;;;20.26;70.08;99591.59;10344326;28;20230;-76
2021/06/20 00:35:13;;;;;;;5.68;5.18;;;;;;;20.11;69.12;99583.59;10343273;28;20194;-75
2021/06/20 00:40:18;;;;;;;6.50;4.78;;;;;;;20.47;72.67;99577.81;10343439;28;20568;-76
2021/06/20 00:45:22;;;;;;;6.18;5.55;;;;;;;20.56;74.37;99582.00;10346195;28;20187;-76
2021/06/20 00:50:28;;;;;;;5.35;4.50;;;;;;;20.37;76.12;99561.00;10349150;28;20212;-76
2021/06/20 00:55:34;;;;;;;6.68;4.38;;;;;;;20.47;76.59;99563.34;10349517;28;20210;-76
2021/06/20 01:00:37;;;;;;;6.57;5.07;;;;;;;20.22;76.43;99558.44;10349990;28;20696;-75
2021/06/20 01:05:42;;;;;;;4.78;4.38;;;;;;;19.82;79.42;99543.88;10349599;28;20200;-74
2021/06/20 01:10:45;;;;;;;6.90;5.25;;;;;;;19.85;81.64;99546.19;10349259;28;20229;-75
2021/06/20 01:15:51;;;;;;;9.02;5.68;;;;;;;19.94;82.22;99535.94;10348694;28;20199;-74
2021/06/20 01:20:55;;;;;;;5.93;5.32;;;;;;;19.92;82.58;99508.06;10349511;28;20239;-74
2021/06/20 01:26:00;;;;;;;6.13;5.05;;;;;;;18.30;78.15;99751.19;10348830;28;20275;-74
2021/06/20 01:31:06;;;;;;;6.60;5.47;;;;;;;17.83;82.83;99744.25;10348508;28;20226;-73
2021/06/20 01:36:11;;;;;;;7.05;4.63;;;;;;;17.78;84.53;99750.25;10348090;28;20191;-74
2021/06/20 01:41:16;;;;;;;5.32;3.45;;;;;;;17.44;86.01;99729.03;10347496;28;20230;-74
2021/06/20 01:46:19;;;;;;;7.43;3.50;;;;;;;17.35;88.06;99670.44;10347041;28;20225;-74
2021/06/20 01:51:22;;;;;;;6.90;4.22;;;;;;;17.52;87.50;99681.97;10347834;28;20207;-74
2021/06/20 01:56:27;;;;;;;7.68;3.20;;;;;;;17.57;87.03;99696.66;10346776;28;20245;-74
2021/06/20 02:01:30;;;;;;;6.53;2.85;;;;;;;17.86;87.29;99697.69;10347768;28;20223;-74
2021/06/20 02:06:37;;;;;;;7.10;3.45;;;;;;;17.97;87.47;99712.69;10347373;28;20734;-74
2021/06/20 02:11:41;;;;;;;4.43;3.28;;;;;;;18.14;87.51;99739.47;10347428;28;20262;-74
2021/06/20 02:16:44;;;;;;;5.72;3.20;;;;;;;18.28;87.47;99715.19;10346588;28;20242;-73
2021/06/20 02:21:51;;;;;;;7.28;2.80;;;;;;;18.31;87.60;99685.75;10337451;28;21269;-74
2021/06/20 02:27:09;;;;;;;5.97;2.90;;;;;;;18.21;87.56;99658.03;10347890;28;20192;-73
2021/06/20 02:37:50;;;;;;;7.95;3.13;;;;;;;18.41;87.31;99545.94;10181080;29;20281;-75
2021/06/20 02:42:54;;;;;;;4.80;2.40;;;;;;;18.35;87.87;99561.16;10157672;29;20229;-76
2021/06/20 02:47:57;;;;;;;6.72;2.65;;;;;;;18.29;87.81;99543.75;10149509;29;20575;-76
2021/06/20 02:53:00;;;;;;;4.82;2.20;;;;;;;18.36;88.37;99541.09;10149280;29;20695;-76
2021/06/20 02:58:05;;;;;;;3.95;2.20;;;;;;;18.41;87.87;99545.94;10131687;29;20225;-76
2021/06/20 03:03:07;;;;;;;4.40;2.38;;;;;;;18.43;87.73;99550.16;10148741;29;20218;-77
2021/06/20 03:08:10;;;;;;;4.57;2.33;;;;;;;18.24;87.65;99611.44;10147633;29;20191;-76
2021/06/20 03:13:15;;;;;;;6.00;2.33;;;;;;;18.09;87.83;99633.22;10148228;29;20222;-76
2021/06/20 03:18:17;;;;;;;5.88;2.70;;;;;;;18.07;88.39;99545.63;10147831;29;20219;-76
2021/06/20 03:23:20;;;;;;;7.63;3.60;;;;;;;17.97;89.29;99476.31;10148101;29;20699;-76
2021/06/20 03:28:25;;;;;;;8.63;3.20;;;;;;;17.72;89.60;99511.13;10147953;29;20548;-76
2021/06/20 03:33:29;;;;;;;7.50;3.17;;;;;;;17.72;89.83;99505.69;10147914;29;20233;-76
2021/06/20 03:38:32;;;;;;;5.00;3.13;;;;;;;17.89;89.48;99459.09;10130729;29;20211;-77
2021/06/20 03:43:37;;;;;;;7.57;3.45;;;;;;;17.97;89.12;99427.41;10147501;29;20224;-76
2021/06/20 03:48:42;;;;;;;7.88;3.70;;;;;;;18.06;89.11;99467.00;10147915;29;20304;-76
2021/06/20 03:53:46;;;;;;;7.50;3.33;;;;;;;17.99;88.70;99474.25;10148032;29;20218;-75
2021/06/20 03:58:50;;;;;;;4.38;2.78;;;;;;;17.80;88.84;99490.16;10130602;29;20322;-75
2021/06/20 04:03:53;;;;;;;6.35;2.92;;;;;;;17.61;88.40;99504.34;10147596;29;20214;-76
2021/06/20 04:08:56;;;;;;;6.40;2.72;;;;;;;17.62;88.48;99527.75;10147692;29;20205;-75
2021/06/20 04:14:00;;;;;;;3.33;2.00;;;;;;;17.62;88.61;99553.03;10147463;29;20584;-75
2021/06/20 04:19:03;;;;;;;5.22;2.65;;;;;;;17.76;88.69;99535.00;10151716;29;20714;-76
2021/06/20 04:24:07;;;;;;;4.00;2.28;;;;;;;17.74;88.36;99547.09;10136706;29;20231;-76
2021/06/20 04:29:11;;;;;;;3.50;1.88;;;;;;;17.87;88.80;99542.66;10153694;29;20205;-75
2021/06/20 04:34:14;;;;;;;4.78;2.40;;;;;;;17.96;88.73;99543.38;10152463;29;20222;-76
2021/06/20 04:39:17;;;;;;;3.67;2.17;;;;;;;18.08;88.62;99558.19;10136238;29;20268;-75
2021/06/20 04:49:45;;;;;;;4.07;2.33;;;;;;;18.07;88.06;99575.53;10135976;29;20202;-76
2021/06/20 04:54:51;;;;;;;6.03;2.25;;;;;;;17.97;88.05;99572.28;10152024;29;20226;-75
2021/06/20 04:59:57;;;;;;;5.32;2.50;;;;;;;18.31;89.50;99563.41;10152658;29;20214;-76
2021/06/20 05:05:00;;;;;;;4.00;2.45;;;;;;;18.45;88.64;99566.25;10151839;29;20215;-75
2021/06/20 05:10:05;;;;;;;4.63;2.40;;;;;;;18.68;88.30;99571.47;10152389;29;20191;-76
2021/06/20 05:15:10;;;;;;;9.07;3.42;;;;;;;18.48;87.72;99593.03;10151745;29;20215;-76
2021/06/20 05:20:14;;;;;;;7.68;2.97;;;;;;;18.46;87.85;99574.22;10151813;29;20230;-75
2021/06/20 05:25:17;;;;;;;6.93;3.55;;;;;;;18.49;87.61;99583.88;10151693;29;20691;-75
2021/06/20 05:30:22;;;;;;;5.28;3.05;;;;;;;18.35;85.78;99593.78;10133574;29;20251;-76
2021/06/20 05:35:25;;;;;;;7.88;3.58;;;;;;;18.46;85.54;99597.88;10134391;29;20236;-76
2021/06/20 05:40:28;;;;;;;6.32;3.95;;;;;;;18.66;84.54;99593.44;10151696;29;20218;-76
2021/06/20 05:45:33;;;;;;;12.55;3.85;;;;;;;18.57;83.71;99600.88;10155992;29;20289;-76
2021/06/20 05:50:36;;;;;;;7.18;3.88;;;;;;;18.57;83.13;99592.72;10152076;29;20195;-76
2021/06/20 05:55:39;;;;;;;7.72;4.53;;;;;;;18.70;82.41;99589.25;10150319;29;20611;-77
2021/06/20 06:00:43;;;;;;;9.65;4.20;;;;;;;18.67;81.92;99603.25;10150963;29;20238;-76
2021/06/20 06:05:46;;;;;;;10.70;5.20;;;;;;;18.72;80.71;99603.50;10150551;29;20727;-77
2021/06/20 06:10:49;;;;;;;8.48;4.82;;;;;;;19.12;81.13;99612.03;10150777;29;20187;-74
2021/06/20 06:15:53;;;;;;;9.43;5.05;;;;;;;19.08;79.64;99588.94;10150257;29;20215;-75
2021/06/20 06:20:56;;;;;;;8.23;4.35;;;;;;;19.05;77.31;99610.28;10150596;29;20226;-75
2021/06/20 06:25:59;;;;;;;7.57;4.65;;;;;;;19.28;77.74;99616.31;10148987;29;20599;-75
2021/06/20 06:31:03;;;;;;;7.55;4.72;;;;;;;19.32;76.85;99622.19;10170792;29;20568;-74
2021/06/20 06:36:08;;;;;;;9.27;4.80;;;;;;;19.52;74.74;99622.31;10203149;29;20312;-73
2021/06/20 06:41:12;;;;;;;10.48;5.20;;;;;;;19.73;74.70;99629.59;10189320;29;20210;-75
2021/06/20 06:46:16;;;;;;;8.35;5.30;;;;;;;19.87;72.99;99636.75;10148336;29;20589;-75
2021/06/20 06:51:19;;;;;;;9.82;4.93;;;;;;;20.03;72.85;99658.22;10150413;29;20188;-75
2021/06/20 06:56:22;;;;;;;7.20;4.63;;;;;;;20.15;70.95;99706.69;10150082;29;20225;-77
2021/06/20 07:01:26;;;;;;;7.63;3.88;;;;;;;20.04;70.50;99684.41;10151120;29;20223;-75
2021/06/20 07:06:30;;;;;;;6.88;4.88;;;;;;;20.30;71.08;99677.41;10133307;29;20227;-74
2021/06/20 07:11:33;;;;;;;9.32;4.40;;;;;;;20.56;68.94;99682.94;10162919;29;20202;-75
2021/06/20 07:16:37;;;;;;;8.05;4.45;;;;;;;20.39;69.94;99681.66;10139666;29;20261;-75
2021/06/20 07:21:40;;;;;;;10.32;4.13;;;;;;;20.71;67.91;99701.03;10146918;29;20226;-74
2021/06/20 07:26:44;;;;;;;6.55;3.92;;;;;;;20.69;67.94;99692.22;10149898;29;20685;-73
2021/06/20 07:31:48;;;;;;;5.43;3.33;;;;;;;20.59;67.30;99708.97;10149710;29;20198;-76
2021/06/20 07:36:52;;;;;;;6.45;3.80;;;;;;;20.56;67.86;99696.56;10148668;29;20231;-74
2021/06/20 07:41:55;;;;;;;6.00;3.90;;;;;;;21.22;67.06;99695.81;10147703;29;20229;-75
2021/06/20 07:46:59;;;;;;;8.07;3.35;;;;;;;21.23;65.58;99681.13;10148645;29;20230;-74
2021/06/20 07:52:02;;;;;;;3.47;3.15;;;;;;;21.13;63.42;99729.88;10148835;29;20583;-75
2021/06/20 07:57:05;;;;;;;7.35;2.92;;;;;;;20.80;63.97;99716.16;10156990;29;20573;-74
2021/06/20 08:02:09;;;;;;;4.85;3.83;;;;;;;20.85;64.11;99693.69;10155926;29;20703;-75
2021/06/20 08:07:12;;;;;;;6.53;3.85;;;;;;;21.34;62.67;99692.47;10154771;29;20237;-76
2021/06/20 08:12:15;;;;;;;8.60;3.75;;;;;;;22.22;60.48;99695.63;10154978;29;20194;-76
2021/06/20 08:17:20;;;;;;;6.45;4.05;;;;;;;22.39;58.52;99703.31;10137558;29;20755;-74
2021/06/20 08:22:23;;;;;;;8.15;4.35;;;;;;;22.26;58.31;99721.47;10154872;29;20203;-74
2021/06/20 08:27:26;;;;;;;4.80;3.88;;;;;;;22.16;57.72;99732.06;10153857;29;20668;-74
2021/06/20 08:32:31;;;;;;;5.85;4.20;;;;;;;22.15;58.80;99713.94;10154548;29;20691;-74
2021/06/20 08:37:34;;;;;;;4.28;3.70;;;;;;;22.59;57.26;99706.81;10401309;23;20663;-74
2021/06/20 08:42:37;;;;;;;4.53;4.13;;;;;;;22.47;58.40;99705.84;10390125;28;20234;-73
2021/06/20 08:47:42;;;;;;;6.55;4.50;;;;;;;22.52;58.71;99700.56;10406305;28;20206;-73
2021/06/20 08:52:46;;;;;;;4.82;4.18;;;;;;;22.91;56.48;99702.19;10412904;28;20309;-73
2021/06/20 08:57:51;;;;;;;5.95;4.47;;;;;;;22.48;57.16;99702.88;10430216;28;20206;-73
2021/06/20 09:03:00;;;;;;;4.85;4.28;;;;;;;21.92;57.71;99705.41;10428478;28;20221;-73
2021/06/20 09:08:13;;;;;;;6.63;4.32;;;;;;;21.68;59.35;99708.59;10427734;28;20305;-73
2021/06/20 09:13:16;;;;;;;5.22;4.63;;;;;;;22.53;56.10;99715.91;10428846;28;20252;-73
2021/06/20 09:18:20;;;;;;;7.35;4.63;;;;;;;22.73;55.46;99713.88;10431546;28;20198;-74
2021/06/20 09:23:24;;;;;;;5.40;4.07;;;;;;;23.64;54.25;99719.91;10431318;28;20300;-73
2021/06/20 09:28:35;;;;;;;4.95;4.03;;;;;;;23.68;53.41;99707.44;10430783;28;20891;-73
2021/06/20 09:33:40;;;;;;;5.65;3.83;;;;;;;23.40;52.46;99729.84;10395512;28;20246;-73
2021/06/20 09:38:43;;;;;;;4.47;4.07;;;;;;;23.16;53.05;99724.13;10389510;28;20281;-74
2021/06/20 09:43:53;;;;;;;5.80;3.60;;;;;;;23.27;53.45;99729.97;10389126;28;20215;-74
2021/06/20 09:48:57;;;;;;;4.07;3.72;;;;;;;23.19;53.97;99733.81;10386507;28;20285;-74
2021/06/20 09:54:00;;;;;;;7.35;4.30;;;;;;;23.29;53.49;99749.75;10388752;28;20643;-74
2021/06/20 09:59:07;;;;;;;4.15;3.83;;;;;;;24.01;51.34;99719.97;10389610;28;20720;-73
2021/06/20 10:04:12;;;;;;;4.00;3.35;;;;;;;24.50;51.30;99720.84;10387826;28;20268;-73
2021/06/20 10:09:16;;;;;;;4.15;3.30;;;;;;;23.86;50.48;99755.97;10389551;28;20198;-73
2021/06/20 10:14:19;;;;;;;4.38;3.08;;;;;;;24.00;49.74;99745.72;10388972;28;20211;-73
2021/06/20 10:19:26;;;;;;;3.78;3.47;;;;;;;23.93;49.92;99742.22;10388662;28;20190;-73
2021/06/20 10:24:30;;;;;;;3.92;3.58;;;;;;;24.35;49.55;99740.44;10388023;28;20226;-73
2021/06/20 10:29:35;;;;;;;4.82;3.72;;;;;;;24.81;46.31;99751.88;10388266;28;20187;-73
2021/06/20 10:34:50;;;;;;;3.58;2.72;;;;;;;24.65;44.29;99759.69;10387151;28;20219;-73
2021/06/20 10:39:55;;;;;;;3.38;3.08;;;;;;;24.80;44.37;99747.47;10369819;28;20207;-73
2021/06/20 10:44:59;;;;;;;3.25;2.97;;;;;;;25.10;45.43;99747.47;10387542;28;20218;-73
2021/06/20 10:50:06;;;;;;;2.67;2.47;;;;;;;25.41;42.97;99755.41;10388197;28;20191;-74
2021/06/20 10:55:12;;;;;;;3.38;3.03;;;;;;;24.69;43.46;99746.38;10386145;28;20249;-73
2021/06/20 11:00:29;;;;;;;3.30;3.00;;;;;;;25.07;45.21;99754.28;10382048;28;20218;-73
2021/06/20 11:05:43;;;;;;;3.00;2.80;;;;;;;26.25;41.59;99768.94;10386361;28;20705;-73
2021/06/20 11:10:46;;;;;;;2.45;2.25;;;;;;;25.32;43.41;99767.00;10386806;28;20266;-73
2021/06/20 11:16:00;;;;;;;3.10;2.80;;;;;;;25.77;43.23;99752.69;10386576;28;20211;-73
2021/06/20 11:21:05;;;;;;;4.20;2.72;;;;;;;25.92;43.07;99738.44;10386914;28;20207;-73
2021/06/20 11:26:08;;;;;;;3.13;2.47;;;;;;;26.70;42.08;99723.28;10384775;28;20698;-73
2021/06/20 11:31:12;;;;;;;2.38;2.10;;;;;;;26.18;39.89;99743.41;10385330;28;20507;-73
2021/06/20 11:36:16;;;;;;;2.60;2.40;;;;;;;26.46;40.35;99715.09;10385611;28;20696;-73
2021/06/20 11:41:23;;;;;;;2.67;2.47;;;;;;;26.84;39.45;99726.59;10385239;28;20228;-73
2021/06/20 11:46:28;;;;;;;2.70;2.47;;;;;;;26.94;40.63;99715.78;10384981;28;20294;-73
2021/06/20 11:51:38;;;;;;;2.47;2.28;;;;;;;27.23;40.27;99715.69;10417790;28;20703;-73
2021/06/20 11:56:44;;;;;;;3.35;2.78;;;;;;;26.97;39.96;99711.69;10425224;28;20214;-73
2021/06/20 12:01:49;;;;;;;2.80;2.60;;;;;;;27.55;40.71;99714.03;10422116;28;20209;-73
2021/06/20 12:06:53;;;;;;;2.38;2.17;;;;;;;28.61;36.41;99732.31;10423786;28;20221;-73
2021/06/20 12:11:59;;;;;;;3.72;2.60;;;;;;;27.51;38.68;99734.06;10425190;28;20546;-73
2021/06/20 12:17:03;;;;;;;3.08;2.35;;;;;;;28.31;38.22;99741.03;10425349;28;20305;-73
2021/06/20 12:22:10;;;;;;;3.83;2.40;;;;;;;27.09;39.15;99751.00;10425749;28;20520;-73
2021/06/20 12:27:16;;;;;;;3.05;2.55;;;;;;;28.64;36.64;99733.72;10425533;28;20226;-73
2021/06/20 12:32:19;;;;;;;2.35;2.22;;;;;;;28.50;36.74;99723.03;10425518;28;20182;-73
2021/06/20 12:37:23;;;;;;;2.92;2.22;;;;;;;27.82;37.80;99738.16;10425033;28;20253;-73
2021/06/20 12:42:26;;;;;;;2.38;2.17;;;;;;;29.01;35.87;99733.78;10431456;28;20234;-73
2021/06/20 12:47:31;;;;;;;1.80;1.70;;;;;;;28.96;35.00;99738.44;10432033;28;20210;-74
2021/06/20 12:52:36;;;;;;;2.67;1.95;;;;;;;28.60;36.00;99732.53;10432564;28;20698;-73
2021/06/20 12:57:50;;;;;;;2.10;1.85;;;;;;;28.71;36.46;99721.34;10432418;28;20216;-74
2021/06/20 13:02:55;;;;;;;2.03;1.80;;;;;;;28.49;38.61;99720.50;10430670;28;20210;-73
2021/06/20 13:07:59;;;;;;;2.10;2.00;;;;;;;28.87;36.80;99708.50;10428553;28;20229;-73
2021/06/20 13:13:02;;;;;;;2.20;2.00;;;;;;;28.90;35.93;99710.75;10431102;28;20224;-73
2021/06/20 13:18:06;;;;;;;2.13;1.92;;;;;;;27.16;39.21;99699.31;10431213;28;20198;-73
2021/06/20 13:23:11;;;;;;;2.35;2.10;;;;;;;26.93;40.51;99714.06;10431407;28;20218;-73
2021/06/20 13:28:14;;;;;;;2.08;1.98;;;;;;;26.96;40.43;99697.06;10430906;28;20198;-73
2021/06/20 13:33:17;;;;;;;2.15;1.95;;;;;;;28.09;38.56;99682.25;10430945;28;20189;-73
2021/06/20 13:38:21;;;;;;;3.80;3.20;;;;;;;30.53;36.55;99676.09;10430174;28;20198;-73
2021/06/20 13:43:24;;;;;;;2.22;2.10;;;;;;;31.66;31.83;99685.25;10430207;28;20726;-73
2021/06/20 13:48:27;;;;;;;2.20;2.00;;;;;;;29.97;33.50;99676.69;10429971;28;20686;-73
2021/06/20 13:53:31;;;;;;;4.40;2.20;;;;;;;28.66;36.29;99679.00;10429261;28;20213;-73
2021/06/20 13:58:34;;;;;;;2.15;1.95;;;;;;;30.85;33.45;99671.13;10428986;28;20190;-73
2021/06/20 14:03:37;;;;;;;2.20;2.00;;;;;;;30.46;33.48;99677.16;10410956;28;20597;-73
2021/06/20 14:08:41;;;;;;;2.30;2.10;;;;;;;28.63;37.02;99672.09;10428521;28;20197;-73
2021/06/20 14:13:45;;;;;;;2.60;2.00;;;;;;;27.22;39.33;99680.94;10429097;28;20214;-73
2021/06/20 14:18:48;;;;;;;3.15;1.90;;;;;;;27.30;39.66;99673.09;10424393;28;20190;-73
2021/06/20 14:23:53;;;;;;;3.05;2.10;;;;;;;27.72;37.90;99669.03;10427097;28;20220;-73
2021/06/20 14:28:56;;;;;;;2.05;1.92;;;;;;;27.36;38.34;99663.78;10423615;28;20187;-73
2021/06/20 14:33:59;;;;;;;2.28;2.08;;;;;;;27.38;38.04;99667.13;10447984;23;20191;-73
2021/06/20 14:39:04;;;;;;;2.00;1.90;;;;;;;27.25;39.22;99659.22;10429368;28;20228;-75
2021/06/20 14:44:09;;;;;;;3.42;2.20;;;;;;;28.57;36.20;99667.59;10429720;28;20224;-76
2021/06/20 14:49:12;;;;;;;1.88;1.77;;;;;;;28.73;35.66;99673.28;10378126;28;20206;-74
2021/06/20 14:54:16;;;;;;;1.80;1.70;;;;;;;28.50;34.75;99665.03;10379753;28;20210;-71
2021/06/20 14:59:19;;;;;;;2.25;2.00;;;;;;;28.77;35.33;99653.16;10374554;28;20286;-73
2021/06/20 15:04:23;;;;;;;2.55;1.92;;;;;;;29.54;33.69;99649.06;10366510;28;20260;-74
2021/06/20 15:09:28;;;;;;;2.42;1.88;;;;;;;31.03;32.25;99647.59;10383409;28;20226;-73
2021/06/20 15:14:31;;;;;;;2.15;1.70;;;;;;;30.29;32.44;99645.28;10382418;28;20211;-74
2021/06/20 15:19:34;;;;;;;2.10;1.90;;;;;;;31.96;32.61;99626.88;10366959;28;20195;-73
2021/06/20 15:24:38;;;;;;;3.67;1.83;;;;;;;32.69;29.29;99614.22;10362908;28;20221;-73
2021/06/20 15:29:44;;;;;;;2.55;2.03;;;;;;;32.62;30.10;99613.72;10352689;28;20194;-75
2021/06/20 15:34:47;;;;;;;2.22;2.08;;;;;;;34.52;29.48;99606.84;10370048;28;20229;-73
2021/06/20 15:39:51;;;;;;;2.40;1.83;;;;;;;33.41;28.50;99608.84;10385722;28;20193;-73
2021/06/20 15:44:54;;;;;;;2.45;1.65;;;;;;;32.41;29.44;99616.63;10382450;28;20228;-70
2021/06/20 15:49:57;;;;;;;2.45;1.63;;;;;;;31.12;31.49;99625.66;10384428;28;20186;-73
2021/06/20 15:55:01;;;;;;;2.58;1.90;;;;;;;31.88;32.30;99605.25;10385681;28;20221;-75
2021/06/20 16:00:07;;;;;;;3.67;1.80;;;;;;;30.67;33.10;99610.72;10386562;28;20663;-74
2021/06/20 16:05:15;;;;;;;2.03;1.75;;;;;;;29.58;35.63;99608.66;10381173;28;20758;-74
2021/06/20 16:10:20;;;;;;;4.50;4.10;;;;;;;30.25;35.28;99607.03;10387204;28;20585;-72
2021/06/20 16:15:24;;;;;;;4.22;3.92;;;;;;;30.71;34.02;99611.00;10389871;28;20206;-75
2021/06/20 16:20:27;;;;;;;4.80;3.83;;;;;;;32.32;32.41;99615.59;10393880;28;20277;-75
2021/06/20 16:25:31;;;;;;;8.38;7.68;;;;;;;34.80;30.11;99611.41;10395437;28;20222;-76
2021/06/20 16:30:34;;;;;;;2.45;2.25;;;;;;;37.67;25.98;99605.03;10393864;28;20186;-76
2021/06/20 16:35:37;;;;;;;2.50;2.30;;;;;;;36.55;25.89;99611.56;10393022;28;20241;-76
2021/06/20 16:40:42;;;;;;;2.47;2.28;;;;;;;33.72;29.44;99619.66;10394774;28;20576;-74
2021/06/20 16:45:45;;;;;;;1.85;1.75;;;;;;;32.69;29.67;99608.66;10393544;28;20226;-75
2021/06/20 16:50:48;;;;;;;2.10;1.67;;;;;;;30.93;32.44;99606.00;10375331;28;20289;-75
2021/06/20 16:55:52;;;;;;;1.88;1.75;;;;;;;30.09;36.11;99601.69;10375671;28;20216;-74
2021/06/20 17:00:56;;;;;;;2.05;1.85;;;;;;;30.50;36.79;99610.97;10358572;28;20199;-74
2021/06/20 17:06:00;;;;;;;1.70;1.60;;;;;;;34.85;29.53;99619.69;10356240;28;20646;-77
2021/06/20 17:11:04;;;;;;;1.73;1.63;;;;;;;34.73;29.30;99621.34;10364654;28;20206;-76
2021/06/20 17:16:07;;;;;;;2.05;1.88;;;;;;;35.35;29.27;99596.78;10351891;28;20265;-77
2021/06/20 17:21:11;;;;;;;2.42;1.85;;;;;;;34.74;28.36;99600.66;10354141;28;20673;-78
2021/06/20 17:26:15;;;;;;;1.60;1.50;;;;;;;33.09;31.38;99598.31;10353735;28;20225;-75
2021/06/20 17:31:21;;;;;;;1.67;1.52;;;;;;;31.50;34.63;99596.47;10351347;28;20652;-75
2021/06/20 17:36:25;;;;;;;2.33;1.70;;;;;;;32.30;34.20;99592.81;10352200;28;20223;-77
2021/06/20 17:41:30;;;;;;;1.85;1.75;;;;;;;34.04;31.64;99601.38;10354444;28;20195;-77
2021/06/20 17:46:33;;;;;;;2.45;1.80;;;;;;;34.05;30.90;99592.75;10350264;28;20706;-75
2021/06/20 17:51:36;;;;;;;1.92;1.80;;;;;;;31.88;33.56;99574.69;10351009;28;20562;-76
2021/06/20 17:56:41;;;;;;;1.92;1.58;;;;;;;30.02;36.44;99568.75;10351371;28;20206;-76
2021/06/20 18:01:44;;;;;;;2.28;2.00;;;;;;;28.77;38.21;99566.66;10350453;28;20187;-76
2021/06/20 18:06:47;;;;;;;2.20;2.00;;;;;;;27.91;39.93;99554.47;10350828;28;20231;-76
2021/06/20 18:11:51;;;;;;;1.70;1.60;;;;;;;27.33;41.21;99555.94;10350113;28;20199;-75
2021/06/20 18:16:54;;;;;;;2.28;2.08;;;;;;;26.91;42.07;99557.28;10350271;28;20211;-75
2021/06/20 18:21:57;;;;;;;2.00;1.90;;;;;;;26.49;42.75;99554.09;10379053;28;20280;-77
2021/06/20 18:27:02;;;;;;;2.20;2.10;;;;;;;26.05;43.86;99553.81;10375735;28;20206;-75
2021/06/20 18:32:06;;;;;;;3.08;2.50;;;;;;;25.81;45.24;99542.94;10364041;28;20199;-76
2021/06/20 18:37:09;;;;;;;3.20;2.00;;;;;;;25.63;45.19;99543.09;10331435;28;20325;-75
2021/06/20 18:42:13;;;;;;;2.33;2.13;;;;;;;25.45;45.48;99537.75;10349489;28;20222;-74
2021/06/20 18:47:17;;;;;;;2.50;2.30;;;;;;;25.32;46.06;99552.63;10373551;28;20215;-75
2021/06/20 18:52:20;;;;;;;3.78;2.30;;;;;;;25.11;45.91;99554.06;10367956;28;20738;-75
2021/06/20 18:57:26;;;;;;;3.10;2.40;;;;;;;24.95;47.35;99548.19;10354698;28;20223;-76
2021/06/20 19:02:30;;;;;;;2.55;2.35;;;;;;;24.85;46.43;99569.06;10376873;28;20206;-75
2021/06/20 19:07:33;;;;;;;3.15;2.83;;;;;;;24.74;46.83;99571.59;10387834;28;20218;-75
2021/06/20 19:12:37;;;;;;;2.95;2.53;;;;;;;24.59;47.54;99564.88;10388515;28;20221;-72
2021/06/20 19:17:41;;;;;;;3.53;2.92;;;;;;;24.28;48.28;99578.63;10382171;28;20215;-74
2021/06/20 19:22:44;;;;;;;5.72;3.67;;;;;;;24.10;48.55;99584.16;10377942;28;20862;-72
2021/06/20 19:27:53;;;;;;;3.03;2.72;;;;;;;23.95;49.33;99567.31;10367432;28;20223;-73
2021/06/20 19:32:57;;;;;;;3.10;2.83;;;;;;;23.84;49.50;99582.63;10383725;28;20285;-73
2021/06/20 19:38:00;;;;;;;5.00;3.25;;;;;;;23.87;49.47;99580.25;10386498;28;20303;-75
2021/06/20 19:43:05;;;;;;;3.90;3.60;;;;;;;23.72;49.95;99585.25;10373814;28;20223;-77
2021/06/20 19:48:12;;;;;;;7.25;6.60;;;;;;;23.57;50.69;99599.38;10353739;28;20206;-75
2021/06/20 19:53:23;;;;;;;5.25;4.80;;;;;;;23.58;50.64;99600.22;10364104;28;20200;-75
2021/06/20 19:58:28;;;;;;;4.70;4.30;;;;;;;23.53;51.01;99600.06;10394009;28;20207;-72
2021/06/20 20:03:30;;;;;;;6.50;4.20;;;;;;;23.54;50.93;99593.53;10392570;28;20212;-73
2021/06/20 20:08:33;;;;;;;4.70;4.30;;;;;;;23.49;51.43;99596.09;10375540;28;20225;-75
2021/06/20 20:13:38;;;;;;;5.10;4.55;;;;;;;23.46;51.75;99585.59;10379802;28;20179;-75
2021/06/20 20:18:41;;;;;;;5.03;4.63;;;;;;;23.39;51.99;99599.38;10390886;28;20191;-73
2021/06/20 20:23:44;;;;;;;5.00;4.50;;;;;;;23.29;52.74;99583.47;10373204;28;20218;-73
2021/06/20 20:28:48;;;;;;;7.90;5.70;;;;;;;23.23;52.63;99578.03;10362827;28;20202;-76
2021/06/20 20:33:51;;;;;;;5.95;5.45;;;;;;;23.16;52.73;99565.25;10353409;28;20550;-74
2021/06/20 20:38:54;;;;;;;6.07;5.47;;;;;;;23.14;53.08;99570.13;10444242;23;20713;-76
2021/06/20 20:43:58;;;;;;;6.85;5.47;;;;;;;23.09;53.78;99550.78;10443412;28;20403;-77
2021/06/20 20:49:01;;;;;;;6.78;5.68;;;;;;;22.97;53.99;99538.88;10466422;28;20229;-78
2021/06/20 20:54:05;;;;;;;6.40;5.75;;;;;;;22.99;54.77;99556.78;10434117;28;20190;-78
2021/06/20 20:59:09;;;;;;;7.50;5.88;;;;;;;22.82;54.95;99557.56;10448461;28;20313;-78
2021/06/20 21:04:13;;;;;;;6.95;6.22;;;;;;;22.72;55.40;99547.13;10447689;28;20213;-78
2021/06/20 21:09:17;;;;;;;6.85;5.50;;;;;;;22.63;55.72;99543.03;10451402;28;20233;-77
2021/06/20 21:14:21;;;;;;;8.00;6.53;;;;;;;22.59;56.12;99533.56;10473878;28;20198;-77
2021/06/20 21:19:25;;;;;;;9.98;7.10;;;;;;;22.48;56.44;99543.34;10443138;28;20240;-78
2021/06/20 21:24:28;;;;;;;9.15;6.68;;;;;;;22.45;57.05;99510.94;10430537;28;20221;-77
2021/06/20 21:29:32;;;;;;;7.43;6.63;;;;;;;22.32;57.40;99517.31;10432645;28;20185;-78
2021/06/20 21:34:35;;;;;;;8.75;7.22;;;;;;;22.31;57.58;99510.19;10417680;28;20789;-78
2021/06/20 21:39:38;;;;;;;7.75;6.80;;;;;;;22.32;57.70;99512.72;10415527;28;20682;-77
2021/06/20 21:44:43;;;;;;;8.82;6.68;;;;;;;22.28;57.87;99511.47;10433373;28;20222;-77
2021/06/20 21:49:46;;;;;;;8.95;6.47;;;;;;;22.19;57.89;99503.75;10433641;28;20200;-77
2021/06/20 21:54:56;;;;;;;8.75;6.38;;;;;;;22.19;58.01;99507.34;10431527;28;20212;-77
2021/06/20 22:00:01;;;;;;;6.97;5.90;;;;;;;22.18;58.09;99523.97;10429636;28;20197;-77
2021/06/20 22:05:15;;;;;;;7.00;5.70;;;;;;;22.16;58.56;99526.06;10430123;28;20221;-77
2021/06/20 22:10:19;;;;;;;6.03;5.38;;;;;;;22.17;58.91;99525.88;10430552;28;20190;-77
2021/06/20 22:15:25;;;;;;;7.07;5.18;;;;;;;22.11;59.02;99530.31;10429192;28;20210;-77
2021/06/20 22:20:29;;;;;;;7.53;4.40;;;;;;;22.12;58.95;99542.09;10414072;28;20244;-77
2021/06/20 22:25:32;;;;;;;6.50;4.78;;;;;;;22.00;59.28;99519.25;10416327;28;20247;-77
2021/06/20 22:30:38;;;;;;;5.63;4.57;;;;;;;21.94;59.58;99509.19;10415723;28;20206;-77
2021/06/20 22:35:41;;;;;;;7.20;4.88;;;;;;;21.86;59.81;99507.56;10415274;28;20233;-77
2021/06/20 22:40:44;;;;;;;7.85;4.80;;;;;;;21.80;60.23;99492.88;10417947;28;20345;-78
2021/06/20 22:45:49;;;;;;;5.68;4.47;;;;;;;21.67;60.81;99482.00;10430872;28;20213;-77
2021/06/20 22:50:52;;;;;;;5.05;4.47;;;;;;;21.64;60.77;99494.19;10431450;28;20198;-78
2021/06/20 22:55:55;;;;;;;6.25;4.22;;;;;;;21.67;60.63;99484.72;10413794;28;20233;-78
2021/06/20 23:01:00;;;;;;;5.20;4.53;;;;;;;21.62;61.02;99470.88;10431711;28;20201;-78
2021/06/20 23:06:03;;;;;;;4.90;4.40;;;;;;;21.42;61.44;99469.09;10432039;28;20218;-78
2021/06/20 23:11:06;;;;;;;7.05;4.00;;;;;;;21.35;62.04;99478.38;10431496;28;20276;-77
2021/06/20 23:16:10;;;;;;;7.00;4.05;;;;;;;21.28;62.25;99475.66;10434020;28;20214;-78
2021/06/20 23:21:13;;;;;;;6.20;4.15;;;;;;;21.16;62.84;99469.19;10421934;28;20244;-78
2021/06/20 23:26:16;;;;;;;7.25;4.00;;;;;;;21.01;63.50;99464.81;10437229;28;20218;-78
2021/06/20 23:31:21;;;;;;;4.28;3.88;;;;;;;21.02;63.74;99462.91;10420294;28;20328;-78
2021/06/20 23:36:24;;;;;;;6.55;4.18;;;;;;;21.08;63.55;99469.44;10413080;28;20857;-78
2021/06/20 23:41:28;;;;;;;5.20;4.30;;;;;;;21.19;63.00;99480.53;10425625;28;20281;-77
2021/06/20 23:46:32;;;;;;;5.97;4.30;;;;;;;21.01;63.85;99494.00;10406029;28;20229;-77